sensor_id;sensor_type;location;lat;lon;timestamp;P1;durP1;ratioP1;P2;durP2;ratioP2
45236;SDS011;30973;51.442;3.580;2022-09-20T00:00:45;3.80;;;1.10;;
45236;SDS011;30973;51.442;3.580;2022-09-20T00:03:13;3.47;;;1.00;;
45236;SDS011;30973;51.442;3.580;2022-09-20T00:05:42;3.67;;;1.05;;
45236;SDS011;30973;51.442;3.580;2022-09-20T00:08:12;4.10;;;0.88;;
45236;SDS011;30973;51.442;3.580;2022-09-20T00:10:40;7.45;;;1.13;;
45236;SDS011;30973;51.442;3.580;2022-09-20T00:13:09;4.28;;;0.88;;
45236;SDS011;30973;51.442;3.580;2022-09-20T00:15:41;4.07;;;1.13;;
45236;SDS011;30973;51.442;3.580;2022-09-20T00:18:10;4.28;;;0.90;;
45236;SDS011;30973;51.442;3.580;2022-09-20T00:20:47;6.00;;;1.08;;
45236;SDS011;30973;51.442;3.580;2022-09-20T00:23:18;3.40;;;0.93;;
45236;SDS011;30973;51.442;3.580;2022-09-20T00:25:52;4.30;;;1.38;;
45236;SDS011;30973;51.442;3.580;2022-09-20T00:28:21;7.78;;;1.45;;
45236;SDS011;30973;51.442;3.580;2022-09-20T00:30:48;6.78;;;1.80;;
45236;SDS011;30973;51.442;3.580;2022-09-20T00:33:14;6.15;;;1.00;;
45236;SDS011;30973;51.442;3.580;2022-09-20T00:35:42;2.25;;;0.93;;
45236;SDS011;30973;51.442;3.580;2022-09-20T00:38:10;5.82;;;1.17;;
45236;SDS011;30973;51.442;3.580;2022-09-20T00:40:42;5.90;;;1.27;;
45236;SDS011;30973;51.442;3.580;2022-09-20T00:43:14;5.28;;;1.50;;
45236;SDS011;30973;51.442;3.580;2022-09-20T00:45:42;7.25;;;1.20;;
45236;SDS011;30973;51.442;3.580;2022-09-20T00:50:51;5.35;;;1.20;;
45236;SDS011;30973;51.442;3.580;2022-09-20T00:53:30;4.65;;;1.00;;
45236;SDS011;30973;51.442;3.580;2022-09-20T00:56:06;4.07;;;1.10;;
45236;SDS011;30973;51.442;3.580;2022-09-20T00:58:38;2.70;;;0.90;;
45236;SDS011;30973;51.442;3.580;2022-09-20T01:01:10;3.35;;;0.90;;
45236;SDS011;30973;51.442;3.580;2022-09-20T01:03:38;2.95;;;0.90;;
45236;SDS011;30973;51.442;3.580;2022-09-20T01:06:08;2.20;;;0.85;;
45236;SDS011;30973;51.442;3.580;2022-09-20T01:08:37;3.30;;;0.90;;
45236;SDS011;30973;51.442;3.580;2022-09-20T01:11:06;3.88;;;1.20;;
45236;SDS011;30973;51.442;3.580;2022-09-20T01:13:34;4.03;;;1.02;;
45236;SDS011;30973;51.442;3.580;2022-09-20T01:16:01;5.32;;;1.17;;
45236;SDS011;30973;51.442;3.580;2022-09-20T01:18:30;3.05;;;0.70;;
45236;SDS011;30973;51.442;3.580;2022-09-20T01:20:58;6.35;;;1.25;;
45236;SDS011;30973;51.442;3.580;2022-09-20T01:28:36;2.28;;;0.88;;
45236;SDS011;30973;51.442;3.580;2022-09-20T01:41:47;4.55;;;1.02;;
45236;SDS011;30973;51.442;3.580;2022-09-20T01:46:49;3.60;;;1.10;;
45236;SDS011;30973;51.442;3.580;2022-09-20T02:17:47;5.78;;;1.15;;
45236;SDS011;30973;51.442;3.580;2022-09-20T02:23:20;4.43;;;1.20;;
45236;SDS011;30973;51.442;3.580;2022-09-20T02:26:35;4.28;;;1.15;;
45236;SDS011;30973;51.442;3.580;2022-09-20T02:31:22;2.63;;;1.10;;
45236;SDS011;30973;51.442;3.580;2022-09-20T02:39:21;2.03;;;0.93;;
45236;SDS011;30973;51.442;3.580;2022-09-20T02:57:58;4.10;;;1.10;;
45236;SDS011;30973;51.442;3.580;2022-09-20T03:03:30;3.92;;;1.38;;
45236;SDS011;30973;51.442;3.580;2022-09-20T03:06:09;3.80;;;1.13;;
45236;SDS011;30973;51.442;3.580;2022-09-20T03:27:08;2.03;;;0.95;;
45236;SDS011;30973;51.442;3.580;2022-09-20T03:29:43;3.50;;;0.95;;
45236;SDS011;30973;51.442;3.580;2022-09-20T03:46:16;4.90;;;1.42;;
45236;SDS011;30973;51.442;3.580;2022-09-20T03:56:58;4.72;;;0.90;;
45236;SDS011;30973;51.442;3.580;2022-09-20T04:02:40;3.20;;;0.95;;
45236;SDS011;30973;51.442;3.580;2022-09-20T04:05:14;2.33;;;0.90;;
45236;SDS011;30973;51.442;3.580;2022-09-20T04:07:49;5.15;;;0.90;;
45236;SDS011;30973;51.442;3.580;2022-09-20T04:21:15;4.00;;;0.90;;
45236;SDS011;30973;51.442;3.580;2022-09-20T04:26:30;2.70;;;1.02;;
45236;SDS011;30973;51.442;3.580;2022-09-20T04:31:42;4.15;;;0.88;;
45236;SDS011;30973;51.442;3.580;2022-09-20T04:34:17;5.25;;;1.17;;
45236;SDS011;30973;51.442;3.580;2022-09-20T04:36:55;7.22;;;0.93;;
45236;SDS011;30973;51.442;3.580;2022-09-20T04:42:06;2.50;;;0.85;;
45236;SDS011;30973;51.442;3.580;2022-09-20T04:50:08;3.88;;;1.05;;
45236;SDS011;30973;51.442;3.580;2022-09-20T04:53:06;2.63;;;1.15;;
45236;SDS011;30973;51.442;3.580;2022-09-20T04:55:34;6.40;;;1.27;;
45236;SDS011;30973;51.442;3.580;2022-09-20T05:11:26;2.55;;;1.00;;
45236;SDS011;30973;51.442;3.580;2022-09-20T05:17:13;6.88;;;1.13;;
45236;SDS011;30973;51.442;3.580;2022-09-20T05:25:02;3.95;;;0.90;;
45236;SDS011;30973;51.442;3.580;2022-09-20T05:27:47;3.88;;;0.90;;
45236;SDS011;30973;51.442;3.580;2022-09-20T05:35:25;2.30;;;1.02;;
45236;SDS011;30973;51.442;3.580;2022-09-20T05:40:37;3.67;;;1.08;;
45236;SDS011;30973;51.442;3.580;2022-09-20T05:43:12;3.92;;;0.90;;
45236;SDS011;30973;51.442;3.580;2022-09-20T05:48:36;4.60;;;1.20;;
45236;SDS011;30973;51.442;3.580;2022-09-20T05:51:07;5.07;;;1.30;;
45236;SDS011;30973;51.442;3.580;2022-09-20T06:04:28;2.72;;;1.10;;
45236;SDS011;30973;51.442;3.580;2022-09-20T06:12:12;2.60;;;0.82;;
45236;SDS011;30973;51.442;3.580;2022-09-20T06:22:30;6.03;;;1.20;;
45236;SDS011;30973;51.442;3.580;2022-09-20T06:27:32;5.78;;;1.10;;
45236;SDS011;30973;51.442;3.580;2022-09-20T06:30:02;2.58;;;0.80;;
45236;SDS011;30973;51.442;3.580;2022-09-20T06:32:31;5.20;;;1.10;;
45236;SDS011;30973;51.442;3.580;2022-09-20T06:35:00;3.90;;;1.08;;
45236;SDS011;30973;51.442;3.580;2022-09-20T06:37:46;3.38;;;1.08;;
45236;SDS011;30973;51.442;3.580;2022-09-20T06:45:47;3.03;;;1.17;;
45236;SDS011;30973;51.442;3.580;2022-09-20T06:48:15;2.72;;;1.17;;
45236;SDS011;30973;51.442;3.580;2022-09-20T06:50:44;5.03;;;1.20;;
45236;SDS011;30973;51.442;3.580;2022-09-20T06:53:13;6.18;;;1.33;;
45236;SDS011;30973;51.442;3.580;2022-09-20T06:55:42;5.72;;;1.13;;
45236;SDS011;30973;51.442;3.580;2022-09-20T06:58:10;5.40;;;1.38;;
45236;SDS011;30973;51.442;3.580;2022-09-20T07:00:37;6.13;;;1.30;;
45236;SDS011;30973;51.442;3.580;2022-09-20T07:03:05;3.60;;;1.00;;
45236;SDS011;30973;51.442;3.580;2022-09-20T07:05:33;5.40;;;1.08;;
45236;SDS011;30973;51.442;3.580;2022-09-20T07:08:01;5.93;;;1.38;;
45236;SDS011;30973;51.442;3.580;2022-09-20T07:10:29;4.65;;;1.30;;
45236;SDS011;30973;51.442;3.580;2022-09-20T07:12:57;4.18;;;1.30;;
45236;SDS011;30973;51.442;3.580;2022-09-20T07:15:26;5.43;;;1.20;;
45236;SDS011;30973;51.442;3.580;2022-09-20T07:17:54;7.60;;;1.70;;
45236;SDS011;30973;51.442;3.580;2022-09-20T07:20:21;4.15;;;0.90;;
45236;SDS011;30973;51.442;3.580;2022-09-20T07:22:49;3.95;;;0.90;;
45236;SDS011;30973;51.442;3.580;2022-09-20T07:25:16;3.28;;;1.00;;
45236;SDS011;30973;51.442;3.580;2022-09-20T07:27:44;3.42;;;0.95;;
45236;SDS011;30973;51.442;3.580;2022-09-20T07:30:12;3.35;;;0.82;;
45236;SDS011;30973;51.442;3.580;2022-09-20T07:32:40;7.03;;;0.95;;
45236;SDS011;30973;51.442;3.580;2022-09-20T07:35:08;4.28;;;1.00;;
45236;SDS011;30973;51.442;3.580;2022-09-20T07:37:35;4.93;;;0.95;;
45236;SDS011;30973;51.442;3.580;2022-09-20T07:40:03;4.63;;;0.85;;
45236;SDS011;30973;51.442;3.580;2022-09-20T07:42:30;4.80;;;1.15;;
45236;SDS011;30973;51.442;3.580;2022-09-20T07:44:57;4.10;;;0.80;;
45236;SDS011;30973;51.442;3.580;2022-09-20T07:47:25;3.25;;;0.90;;
45236;SDS011;30973;51.442;3.580;2022-09-20T07:49:53;3.05;;;0.88;;
45236;SDS011;30973;51.442;3.580;2022-09-20T07:52:20;3.08;;;1.20;;
45236;SDS011;30973;51.442;3.580;2022-09-20T07:54:47;2.95;;;0.90;;
45236;SDS011;30973;51.442;3.580;2022-09-20T07:57:15;2.80;;;1.10;;
45236;SDS011;30973;51.442;3.580;2022-09-20T07:59:42;5.25;;;1.20;;
45236;SDS011;30973;51.442;3.580;2022-09-20T08:02:12;4.25;;;0.90;;
45236;SDS011;30973;51.442;3.580;2022-09-20T08:04:41;4.85;;;0.98;;
45236;SDS011;30973;51.442;3.580;2022-09-20T08:07:08;2.85;;;0.80;;
45236;SDS011;30973;51.442;3.580;2022-09-20T08:09:35;3.10;;;1.17;;
45236;SDS011;30973;51.442;3.580;2022-09-20T08:12:02;6.03;;;1.00;;
45236;SDS011;30973;51.442;3.580;2022-09-20T08:14:50;3.08;;;0.82;;
45236;SDS011;30973;51.442;3.580;2022-09-20T08:17:20;4.82;;;1.20;;
45236;SDS011;30973;51.442;3.580;2022-09-20T08:19:47;5.03;;;1.20;;
45236;SDS011;30973;51.442;3.580;2022-09-20T08:22:15;4.28;;;1.17;;
45236;SDS011;30973;51.442;3.580;2022-09-20T08:24:43;5.38;;;1.30;;
45236;SDS011;30973;51.442;3.580;2022-09-20T08:27:10;5.13;;;1.08;;
45236;SDS011;30973;51.442;3.580;2022-09-20T08:29:37;4.13;;;0.85;;
45236;SDS011;30973;51.442;3.580;2022-09-20T08:32:04;2.85;;;0.93;;
45236;SDS011;30973;51.442;3.580;2022-09-20T08:34:31;4.50;;;0.90;;
45236;SDS011;30973;51.442;3.580;2022-09-20T08:36:58;3.92;;;1.25;;
45236;SDS011;30973;51.442;3.580;2022-09-20T08:39:25;5.07;;;1.40;;
45236;SDS011;30973;51.442;3.580;2022-09-20T08:42:31;7.32;;;1.42;;
45236;SDS011;30973;51.442;3.580;2022-09-20T08:45:16;3.70;;;1.02;;
45236;SDS011;30973;51.442;3.580;2022-09-20T08:48:00;4.72;;;0.90;;
45236;SDS011;30973;51.442;3.580;2022-09-20T08:50:32;4.15;;;1.15;;
45236;SDS011;30973;51.442;3.580;2022-09-20T08:52:59;4.75;;;1.40;;
45236;SDS011;30973;51.442;3.580;2022-09-20T08:55:31;6.00;;;2.28;;
45236;SDS011;30973;51.442;3.580;2022-09-20T08:58:02;5.80;;;1.88;;
45236;SDS011;30973;51.442;3.580;2022-09-20T09:00:34;10.27;;;1.65;;
45236;SDS011;30973;51.442;3.580;2022-09-20T09:03:04;4.63;;;1.25;;
45236;SDS011;30973;51.442;3.580;2022-09-20T09:05:45;6.15;;;1.50;;
45236;SDS011;30973;51.442;3.580;2022-09-20T09:08:16;4.57;;;1.27;;
45236;SDS011;30973;51.442;3.580;2022-09-20T09:11:12;5.82;;;1.63;;
45236;SDS011;30973;51.442;3.580;2022-09-20T09:13:51;4.75;;;1.35;;
45236;SDS011;30973;51.442;3.580;2022-09-20T09:16:27;6.32;;;1.75;;
45236;SDS011;30973;51.442;3.580;2022-09-20T09:21:46;6.13;;;1.75;;
45236;SDS011;30973;51.442;3.580;2022-09-20T09:24:16;4.78;;;2.08;;
45236;SDS011;30973;51.442;3.580;2022-09-20T09:26:44;6.35;;;1.40;;
45236;SDS011;30973;51.442;3.580;2022-09-20T09:31:38;4.43;;;1.30;;
45236;SDS011;30973;51.442;3.580;2022-09-20T09:34:21;5.32;;;1.35;;
45236;SDS011;30973;51.442;3.580;2022-09-20T09:36:51;3.90;;;1.30;;
45236;SDS011;30973;51.442;3.580;2022-09-20T09:39:34;4.63;;;1.33;;
45236;SDS011;30973;51.442;3.580;2022-09-20T09:42:24;3.83;;;1.00;;
45236;SDS011;30973;51.442;3.580;2022-09-20T09:45:08;2.95;;;1.20;;
45236;SDS011;30973;51.442;3.580;2022-09-20T09:47:37;4.85;;;1.52;;
45236;SDS011;30973;51.442;3.580;2022-09-20T09:50:04;4.38;;;1.20;;
45236;SDS011;30973;51.442;3.580;2022-09-20T09:52:35;4.72;;;1.40;;
45236;SDS011;30973;51.442;3.580;2022-09-20T09:55:02;5.10;;;1.98;;
45236;SDS011;30973;51.442;3.580;2022-09-20T10:00:39;4.93;;;1.40;;
45236;SDS011;30973;51.442;3.580;2022-09-20T10:06:07;4.15;;;1.02;;
45236;SDS011;30973;51.442;3.580;2022-09-20T10:16:56;4.43;;;1.38;;
45236;SDS011;30973;51.442;3.580;2022-09-20T10:25:48;6.93;;;1.45;;
45236;SDS011;30973;51.442;3.580;2022-09-20T10:28:56;3.67;;;1.10;;
45236;SDS011;30973;51.442;3.580;2022-09-20T10:31:38;6.28;;;1.13;;
45236;SDS011;30973;51.442;3.580;2022-09-20T10:37:05;2.25;;;0.68;;
45236;SDS011;30973;51.442;3.580;2022-09-20T10:39:51;5.47;;;1.08;;
45236;SDS011;30973;51.442;3.580;2022-09-20T10:42:45;3.58;;;0.80;;
45236;SDS011;30973;51.442;3.580;2022-09-20T10:45:42;3.63;;;0.90;;
45236;SDS011;30973;51.442;3.580;2022-09-20T10:48:54;4.20;;;0.70;;
45236;SDS011;30973;51.442;3.580;2022-09-20T10:57:47;2.67;;;0.90;;
45236;SDS011;30973;51.442;3.580;2022-09-20T10:59:47;3.85;;;0.90;;
45236;SDS011;30973;51.442;3.580;2022-09-20T11:07:46;1.98;;;0.70;;
45236;SDS011;30973;51.442;3.580;2022-09-20T11:10:20;4.78;;;0.82;;
45236;SDS011;30973;51.442;3.580;2022-09-20T11:12:52;2.13;;;0.80;;
45236;SDS011;30973;51.442;3.580;2022-09-20T11:15:34;3.17;;;0.85;;
45236;SDS011;30973;51.442;3.580;2022-09-20T11:18:17;3.05;;;0.95;;
45236;SDS011;30973;51.442;3.580;2022-09-20T11:21:10;3.15;;;0.70;;
45236;SDS011;30973;51.442;3.580;2022-09-20T11:23:58;2.03;;;0.68;;
45236;SDS011;30973;51.442;3.580;2022-09-20T11:26:34;3.05;;;0.90;;
45236;SDS011;30973;51.442;3.580;2022-09-20T11:32:07;1.88;;;0.68;;
45236;SDS011;30973;51.442;3.580;2022-09-20T11:34:49;3.47;;;0.90;;
45236;SDS011;30973;51.442;3.580;2022-09-20T11:37:21;3.45;;;0.80;;
45236;SDS011;30973;51.442;3.580;2022-09-20T11:39:52;3.33;;;0.93;;
45236;SDS011;30973;51.442;3.580;2022-09-20T11:42:27;3.38;;;0.80;;
45236;SDS011;30973;51.442;3.580;2022-09-20T11:44:58;2.78;;;0.68;;
45236;SDS011;30973;51.442;3.580;2022-09-20T11:47:27;2.75;;;0.73;;
45236;SDS011;30973;51.442;3.580;2022-09-20T11:50:33;3.75;;;0.80;;
45236;SDS011;30973;51.442;3.580;2022-09-20T11:58:53;3.30;;;0.95;;
45236;SDS011;30973;51.442;3.580;2022-09-20T12:04:41;3.33;;;0.82;;
45236;SDS011;30973;51.442;3.580;2022-09-20T12:07:17;2.42;;;0.70;;
45236;SDS011;30973;51.442;3.580;2022-09-20T12:12:44;3.78;;;0.85;;
45236;SDS011;30973;51.442;3.580;2022-09-20T12:36:30;3.13;;;1.00;;
45236;SDS011;30973;51.442;3.580;2022-09-20T12:39:04;1.25;;;0.70;;
45236;SDS011;30973;51.442;3.580;2022-09-20T12:44:29;4.20;;;0.80;;
45236;SDS011;30973;51.442;3.580;2022-09-20T12:46:58;3.17;;;0.90;;
45236;SDS011;30973;51.442;3.580;2022-09-20T12:57:57;4.05;;;0.85;;
45236;SDS011;30973;51.442;3.580;2022-09-20T13:00:32;2.42;;;0.85;;
45236;SDS011;30973;51.442;3.580;2022-09-20T13:05:47;2.25;;;0.57;;
45236;SDS011;30973;51.442;3.580;2022-09-20T13:14:00;5.40;;;1.00;;
45236;SDS011;30973;51.442;3.580;2022-09-20T13:19:18;2.05;;;0.63;;
45236;SDS011;30973;51.442;3.580;2022-09-20T13:24:43;2.95;;;0.60;;
45236;SDS011;30973;51.442;3.580;2022-09-20T13:27:14;2.42;;;0.70;;
45236;SDS011;30973;51.442;3.580;2022-09-20T13:29:45;3.28;;;0.80;;
45236;SDS011;30973;51.442;3.580;2022-09-20T13:32:25;4.65;;;0.73;;
45236;SDS011;30973;51.442;3.580;2022-09-20T13:35:15;2.63;;;0.82;;
45236;SDS011;30973;51.442;3.580;2022-09-20T13:37:54;4.45;;;0.80;;
45236;SDS011;30973;51.442;3.580;2022-09-20T13:43:26;1.20;;;0.82;;
45236;SDS011;30973;51.442;3.580;2022-09-20T13:45:58;3.20;;;0.70;;
45236;SDS011;30973;51.442;3.580;2022-09-20T13:48:45;2.58;;;0.82;;
45236;SDS011;30973;51.442;3.580;2022-09-20T13:51:15;1.48;;;0.60;;
45236;SDS011;30973;51.442;3.580;2022-09-20T13:53:44;4.00;;;0.70;;
45236;SDS011;30973;51.442;3.580;2022-09-20T13:56:23;1.48;;;0.60;;
45236;SDS011;30973;51.442;3.580;2022-09-20T13:58:54;3.55;;;0.50;;
45236;SDS011;30973;51.442;3.580;2022-09-20T14:01:31;1.50;;;0.55;;
45236;SDS011;30973;51.442;3.580;2022-09-20T14:04:06;3.60;;;0.57;;
45236;SDS011;30973;51.442;3.580;2022-09-20T14:06:39;2.25;;;0.70;;
45236;SDS011;30973;51.442;3.580;2022-09-20T14:09:09;3.75;;;0.88;;
45236;SDS011;30973;51.442;3.580;2022-09-20T14:12:04;2.97;;;0.68;;
45236;SDS011;30973;51.442;3.580;2022-09-20T14:14:32;3.05;;;0.80;;
45236;SDS011;30973;51.442;3.580;2022-09-20T14:17:00;4.53;;;0.80;;
45236;SDS011;30973;51.442;3.580;2022-09-20T14:19:32;2.80;;;1.00;;
45236;SDS011;30973;51.442;3.580;2022-09-20T14:22:02;3.13;;;0.70;;
45236;SDS011;30973;51.442;3.580;2022-09-20T14:24:34;3.42;;;1.20;;
45236;SDS011;30973;51.442;3.580;2022-09-20T14:27:04;4.22;;;0.88;;
45236;SDS011;30973;51.442;3.580;2022-09-20T14:29:52;2.70;;;0.90;;
45236;SDS011;30973;51.442;3.580;2022-09-20T14:34:52;3.38;;;0.80;;
45236;SDS011;30973;51.442;3.580;2022-09-20T14:37:34;3.35;;;0.88;;
45236;SDS011;30973;51.442;3.580;2022-09-20T14:40:17;4.20;;;1.15;;
45236;SDS011;30973;51.442;3.580;2022-09-20T14:50:43;2.08;;;0.68;;
45236;SDS011;30973;51.442;3.580;2022-09-20T14:53:22;4.70;;;1.00;;
45236;SDS011;30973;51.442;3.580;2022-09-20T14:58:22;3.75;;;0.80;;
45236;SDS011;30973;51.442;3.580;2022-09-20T15:03:26;4.38;;;1.10;;
45236;SDS011;30973;51.442;3.580;2022-09-20T15:05:58;3.63;;;0.80;;
45236;SDS011;30973;51.442;3.580;2022-09-20T15:08:25;3.22;;;0.70;;
45236;SDS011;30973;51.442;3.580;2022-09-20T15:10:52;4.15;;;0.90;;
45236;SDS011;30973;51.442;3.580;2022-09-20T15:13:20;3.33;;;1.05;;
45236;SDS011;30973;51.442;3.580;2022-09-20T15:15:48;3.58;;;0.90;;
45236;SDS011;30973;51.442;3.580;2022-09-20T15:18:32;3.70;;;0.93;;
45236;SDS011;30973;51.442;3.580;2022-09-20T15:21:02;2.47;;;1.10;;
45236;SDS011;30973;51.442;3.580;2022-09-20T15:23:29;3.75;;;0.80;;
45236;SDS011;30973;51.442;3.580;2022-09-20T15:25:56;5.88;;;0.80;;
45236;SDS011;30973;51.442;3.580;2022-09-20T15:28:23;5.15;;;1.00;;
45236;SDS011;30973;51.442;3.580;2022-09-20T15:30:52;5.90;;;1.70;;
45236;SDS011;30973;51.442;3.580;2022-09-20T15:33:19;3.30;;;0.75;;
45236;SDS011;30973;51.442;3.580;2022-09-20T15:35:47;5.10;;;1.20;;
45236;SDS011;30973;51.442;3.580;2022-09-20T15:38:15;3.60;;;1.15;;
45236;SDS011;30973;51.442;3.580;2022-09-20T15:40:45;3.95;;;1.10;;
45236;SDS011;30973;51.442;3.580;2022-09-20T15:43:17;4.93;;;1.38;;
45236;SDS011;30973;51.442;3.580;2022-09-20T15:45:49;3.72;;;1.17;;
45236;SDS011;30973;51.442;3.580;2022-09-20T15:48:21;4.05;;;1.02;;
45236;SDS011;30973;51.442;3.580;2022-09-20T15:53:34;5.70;;;1.15;;
45236;SDS011;30973;51.442;3.580;2022-09-20T15:56:04;5.93;;;1.38;;
45236;SDS011;30973;51.442;3.580;2022-09-20T15:58:53;4.85;;;1.75;;
45236;SDS011;30973;51.442;3.580;2022-09-20T16:01:34;3.80;;;1.17;;
45236;SDS011;30973;51.442;3.580;2022-09-20T16:04:07;3.83;;;1.10;;
45236;SDS011;30973;51.442;3.580;2022-09-20T16:06:39;4.68;;;1.20;;
45236;SDS011;30973;51.442;3.580;2022-09-20T16:09:07;5.80;;;1.23;;
45236;SDS011;30973;51.442;3.580;2022-09-20T16:11:34;5.45;;;0.98;;
45236;SDS011;30973;51.442;3.580;2022-09-20T16:14:02;6.85;;;1.30;;
45236;SDS011;30973;51.442;3.580;2022-09-20T16:16:30;4.32;;;1.10;;
45236;SDS011;30973;51.442;3.580;2022-09-20T16:19:05;3.92;;;1.08;;
45236;SDS011;30973;51.442;3.580;2022-09-20T16:21:51;6.28;;;1.52;;
45236;SDS011;30973;51.442;3.580;2022-09-20T16:24:27;7.35;;;3.22;;
45236;SDS011;30973;51.442;3.580;2022-09-20T16:26:56;6.45;;;2.60;;
45236;SDS011;30973;51.442;3.580;2022-09-20T16:29:26;11.60;;;5.00;;
45236;SDS011;30973;51.442;3.580;2022-09-20T16:31:55;9.07;;;4.68;;
45236;SDS011;30973;51.442;3.580;2022-09-20T16:34:24;3.90;;;2.60;;
45236;SDS011;30973;51.442;3.580;2022-09-20T16:36:57;5.28;;;2.15;;
45236;SDS011;30973;51.442;3.580;2022-09-20T16:39:26;3.88;;;1.33;;
45236;SDS011;30973;51.442;3.580;2022-09-20T16:41:55;4.57;;;1.20;;
45236;SDS011;30973;51.442;3.580;2022-09-20T16:44:34;4.03;;;1.20;;
45236;SDS011;30973;51.442;3.580;2022-09-20T16:47:02;1.63;;;0.90;;
45236;SDS011;30973;51.442;3.580;2022-09-20T16:49:34;6.95;;;1.10;;
45236;SDS011;30973;51.442;3.580;2022-09-20T16:52:05;3.90;;;1.10;;
45236;SDS011;30973;51.442;3.580;2022-09-20T16:54:34;5.22;;;1.17;;
45236;SDS011;30973;51.442;3.580;2022-09-20T16:57:01;5.22;;;0.85;;
45236;SDS011;30973;51.442;3.580;2022-09-20T16:59:28;6.32;;;1.23;;
45236;SDS011;30973;51.442;3.580;2022-09-20T17:01:55;3.83;;;0.90;;
45236;SDS011;30973;51.442;3.580;2022-09-20T17:04:22;3.65;;;1.00;;
45236;SDS011;30973;51.442;3.580;2022-09-20T17:06:49;6.32;;;1.20;;
45236;SDS011;30973;51.442;3.580;2022-09-20T17:09:17;4.63;;;1.08;;
45236;SDS011;30973;51.442;3.580;2022-09-20T17:11:46;3.50;;;0.90;;
45236;SDS011;30973;51.442;3.580;2022-09-20T17:14:16;3.10;;;1.33;;
45236;SDS011;30973;51.442;3.580;2022-09-20T17:16:44;4.55;;;1.23;;
45236;SDS011;30973;51.442;3.580;2022-09-20T17:19:17;3.80;;;1.00;;
45236;SDS011;30973;51.442;3.580;2022-09-20T17:21:46;3.05;;;1.30;;
45236;SDS011;30973;51.442;3.580;2022-09-20T17:24:16;4.80;;;1.40;;
45236;SDS011;30973;51.442;3.580;2022-09-20T17:26:45;3.33;;;1.20;;
45236;SDS011;30973;51.442;3.580;2022-09-20T17:29:13;5.68;;;1.38;;
45236;SDS011;30973;51.442;3.580;2022-09-20T17:31:43;4.60;;;1.30;;
45236;SDS011;30973;51.442;3.580;2022-09-20T17:34:19;5.57;;;1.60;;
45236;SDS011;30973;51.442;3.580;2022-09-20T17:36:47;3.22;;;1.20;;
45236;SDS011;30973;51.442;3.580;2022-09-20T17:39:15;3.40;;;1.23;;
45236;SDS011;30973;51.442;3.580;2022-09-20T17:41:44;3.13;;;1.30;;
45236;SDS011;30973;51.442;3.580;2022-09-20T17:44:12;4.57;;;1.25;;
45236;SDS011;30973;51.442;3.580;2022-09-20T17:46:41;3.63;;;1.40;;
45236;SDS011;30973;51.442;3.580;2022-09-20T17:49:13;6.40;;;1.40;;
45236;SDS011;30973;51.442;3.580;2022-09-20T17:51:47;4.32;;;1.30;;
45236;SDS011;30973;51.442;3.580;2022-09-20T17:54:19;3.38;;;1.08;;
45236;SDS011;30973;51.442;3.580;2022-09-20T17:56:47;4.15;;;1.67;;
45236;SDS011;30973;51.442;3.580;2022-09-20T17:59:16;4.25;;;1.50;;
45236;SDS011;30973;51.442;3.580;2022-09-20T18:01:45;4.10;;;1.50;;
45236;SDS011;30973;51.442;3.580;2022-09-20T18:04:13;3.45;;;1.52;;
45236;SDS011;30973;51.442;3.580;2022-09-20T18:06:45;4.45;;;1.63;;
45236;SDS011;30973;51.442;3.580;2022-09-20T18:09:17;4.15;;;1.52;;
45236;SDS011;30973;51.442;3.580;2022-09-20T18:11:54;5.95;;;1.67;;
45236;SDS011;30973;51.442;3.580;2022-09-20T18:14:25;5.03;;;1.40;;
45236;SDS011;30973;51.442;3.580;2022-09-20T18:16:54;5.72;;;1.73;;
45236;SDS011;30973;51.442;3.580;2022-09-20T18:19:23;4.80;;;1.60;;
45236;SDS011;30973;51.442;3.580;2022-09-20T18:21:58;6.95;;;1.77;;
45236;SDS011;30973;51.442;3.580;2022-09-20T18:24:26;4.43;;;1.58;;
45236;SDS011;30973;51.442;3.580;2022-09-20T18:26:53;4.78;;;1.85;;
45236;SDS011;30973;51.442;3.580;2022-09-20T18:29:20;9.32;;;1.63;;
45236;SDS011;30973;51.442;3.580;2022-09-20T18:31:48;3.63;;;1.52;;
45236;SDS011;30973;51.442;3.580;2022-09-20T18:34:18;4.97;;;1.55;;
45236;SDS011;30973;51.442;3.580;2022-09-20T18:36:50;4.18;;;1.35;;
45236;SDS011;30973;51.442;3.580;2022-09-20T18:39:19;3.50;;;1.27;;
45236;SDS011;30973;51.442;3.580;2022-09-20T18:41:51;4.47;;;1.50;;
45236;SDS011;30973;51.442;3.580;2022-09-20T18:44:18;4.20;;;1.70;;
45236;SDS011;30973;51.442;3.580;2022-09-20T18:46:46;4.18;;;1.38;;
45236;SDS011;30973;51.442;3.580;2022-09-20T18:49:17;4.90;;;1.50;;
45236;SDS011;30973;51.442;3.580;2022-09-20T18:51:45;5.57;;;1.80;;
45236;SDS011;30973;51.442;3.580;2022-09-20T18:54:13;5.05;;;1.60;;
45236;SDS011;30973;51.442;3.580;2022-09-20T18:56:41;5.00;;;1.52;;
45236;SDS011;30973;51.442;3.580;2022-09-20T18:59:14;5.07;;;1.75;;
45236;SDS011;30973;51.442;3.580;2022-09-20T19:07:46;4.90;;;1.45;;
45236;SDS011;30973;51.442;3.580;2022-09-20T19:15:46;3.97;;;1.20;;
45236;SDS011;30973;51.442;3.580;2022-09-20T19:21:29;4.43;;;1.45;;
45236;SDS011;30973;51.442;3.580;2022-09-20T19:26:56;2.90;;;1.35;;
45236;SDS011;30973;51.442;3.580;2022-09-20T19:29:24;5.63;;;1.10;;
45236;SDS011;30973;51.442;3.580;2022-09-20T19:31:54;4.93;;;1.30;;
45236;SDS011;30973;51.442;3.580;2022-09-20T19:34:24;4.13;;;1.23;;
45236;SDS011;30973;51.442;3.580;2022-09-20T19:37:05;4.15;;;1.20;;
45236;SDS011;30973;51.442;3.580;2022-09-20T19:45:24;4.38;;;1.50;;
45236;SDS011;30973;51.442;3.580;2022-09-20T19:48:20;4.32;;;1.30;;
45236;SDS011;30973;51.442;3.580;2022-09-20T19:50:50;1.90;;;1.08;;
45236;SDS011;30973;51.442;3.580;2022-09-20T19:53:18;4.35;;;1.10;;
45236;SDS011;30973;51.442;3.580;2022-09-20T19:55:52;3.15;;;1.10;;
45236;SDS011;30973;51.442;3.580;2022-09-20T19:58:40;4.05;;;1.35;;
45236;SDS011;30973;51.442;3.580;2022-09-20T20:01:10;4.00;;;1.20;;
45236;SDS011;30973;51.442;3.580;2022-09-20T20:03:38;3.65;;;1.40;;
45236;SDS011;30973;51.442;3.580;2022-09-20T20:06:07;4.18;;;1.55;;
45236;SDS011;30973;51.442;3.580;2022-09-20T20:08:43;4.38;;;1.38;;
45236;SDS011;30973;51.442;3.580;2022-09-20T20:11:27;3.25;;;1.10;;
45236;SDS011;30973;51.442;3.580;2022-09-20T20:22:10;4.82;;;1.77;;
45236;SDS011;30973;51.442;3.580;2022-09-20T20:24:57;4.10;;;1.80;;
45236;SDS011;30973;51.442;3.580;2022-09-20T20:27:24;6.28;;;1.70;;
45236;SDS011;30973;51.442;3.580;2022-09-20T20:29:56;5.20;;;1.67;;
45236;SDS011;30973;51.442;3.580;2022-09-20T20:32:23;3.72;;;1.90;;
45236;SDS011;30973;51.442;3.580;2022-09-20T20:34:51;3.38;;;1.67;;
45236;SDS011;30973;51.442;3.580;2022-09-20T20:37:18;4.28;;;1.92;;
45236;SDS011;30973;51.442;3.580;2022-09-20T20:39:49;4.40;;;1.70;;
45236;SDS011;30973;51.442;3.580;2022-09-20T20:42:22;5.55;;;1.85;;
45236;SDS011;30973;51.442;3.580;2022-09-20T20:45:29;3.72;;;1.73;;
45236;SDS011;30973;51.442;3.580;2022-09-20T20:47:56;3.30;;;2.00;;
45236;SDS011;30973;51.442;3.580;2022-09-20T20:50:24;4.53;;;1.80;;
45236;SDS011;30973;51.442;3.580;2022-09-20T20:52:55;3.85;;;1.50;;
45236;SDS011;30973;51.442;3.580;2022-09-20T20:55:22;4.22;;;1.85;;
45236;SDS011;30973;51.442;3.580;2022-09-20T20:57:53;4.28;;;1.42;;
45236;SDS011;30973;51.442;3.580;2022-09-20T21:00:26;5.85;;;1.98;;
45236;SDS011;30973;51.442;3.580;2022-09-20T21:02:54;2.50;;;1.48;;
45236;SDS011;30973;51.442;3.580;2022-09-20T21:05:24;3.15;;;1.52;;
45236;SDS011;30973;51.442;3.580;2022-09-20T21:07:51;7.03;;;1.52;;
45236;SDS011;30973;51.442;3.580;2022-09-20T21:10:20;2.45;;;1.20;;
45236;SDS011;30973;51.442;3.580;2022-09-20T21:12:48;3.63;;;1.20;;
45236;SDS011;30973;51.442;3.580;2022-09-20T21:15:20;3.22;;;1.30;;
45236;SDS011;30973;51.442;3.580;2022-09-20T21:17:50;5.43;;;1.25;;
45236;SDS011;30973;51.442;3.580;2022-09-20T21:20:18;2.72;;;1.33;;
45236;SDS011;30973;51.442;3.580;2022-09-20T21:22:46;2.10;;;1.20;;
45236;SDS011;30973;51.442;3.580;2022-09-20T21:25:13;4.68;;;1.40;;